sensor_id;sensor_type;location;lat;lon;timestamp;temperature;humidity
51811;DHT22;52468;40.116;18.296;2023-08-06T00:01:41;21.30;81.20
51811;DHT22;52468;40.116;18.296;2023-08-06T00:04:08;21.20;81.10
51811;DHT22;52468;40.116;18.296;2023-08-06T00:06:36;21.20;80.90
51811;DHT22;52468;40.116;18.296;2023-08-06T00:09:04;21.20;80.90
51811;DHT22;52468;40.116;18.296;2023-08-06T00:11:32;21.20;80.60
51811;DHT22;52468;40.116;18.296;2023-08-06T00:14:00;21.20;80.40
51811;DHT22;52468;40.116;18.296;2023-08-06T00:16:28;21.30;80.20
51811;DHT22;52468;40.116;18.296;2023-08-06T00:18:55;21.30;80.00
51811;DHT22;52468;40.116;18.296;2023-08-06T00:21:23;21.30;79.30
51811;DHT22;52468;40.116;18.296;2023-08-06T00:23:51;21.30;79.30
51811;DHT22;52468;40.116;18.296;2023-08-06T00:26:19;21.30;79.40
51811;DHT22;52468;40.116;18.296;2023-08-06T00:28:47;21.20;79.30
51811;DHT22;52468;40.116;18.296;2023-08-06T00:31:15;21.20;79.30
51811;DHT22;52468;40.116;18.296;2023-08-06T00:33:43;21.20;79.60
51811;DHT22;52468;40.116;18.296;2023-08-06T00:36:11;21.20;79.40
51811;DHT22;52468;40.116;18.296;2023-08-06T00:38:38;21.20;79.50
51811;DHT22;52468;40.116;18.296;2023-08-06T00:41:06;21.30;79.20
51811;DHT22;52468;40.116;18.296;2023-08-06T00:43:34;21.20;79.50
51811;DHT22;52468;40.116;18.296;2023-08-06T00:46:02;21.10;79.80
51811;DHT22;52468;40.116;18.296;2023-08-06T00:48:31;21.10;79.70
51811;DHT22;52468;40.116;18.296;2023-08-06T00:50:59;21.10;80.10
51811;DHT22;52468;40.116;18.296;2023-08-06T00:53:26;21.10;80.10
51811;DHT22;52468;40.116;18.296;2023-08-06T00:55:54;21.10;80.00
51811;DHT22;52468;40.116;18.296;2023-08-06T00:58:22;21.10;80.10
51811;DHT22;52468;40.116;18.296;2023-08-06T01:00:50;21.10;80.00
51811;DHT22;52468;40.116;18.296;2023-08-06T01:03:18;21.10;80.10
51811;DHT22;52468;40.116;18.296;2023-08-06T01:05:46;21.10;80.20
51811;DHT22;52468;40.116;18.296;2023-08-06T01:08:49;21.10;80.30
51811;DHT22;52468;40.116;18.296;2023-08-06T01:14:10;21.10;80.50
51811;DHT22;52468;40.116;18.296;2023-08-06T01:16:41;21.10;80.00
51811;DHT22;52468;40.116;18.296;2023-08-06T01:19:19;21.20;80.20
51811;DHT22;52468;40.116;18.296;2023-08-06T01:21:47;21.20;80.10
51811;DHT22;52468;40.116;18.296;2023-08-06T01:24:17;21.20;80.00
51811;DHT22;52468;40.116;18.296;2023-08-06T01:30:03;21.10;80.00
51811;DHT22;52468;40.116;18.296;2023-08-06T01:32:35;21.10;80.00
51811;DHT22;52468;40.116;18.296;2023-08-06T01:35:06;21.10;80.10
51811;DHT22;52468;40.116;18.296;2023-08-06T01:37:34;21.10;80.40
51811;DHT22;52468;40.116;18.296;2023-08-06T01:40:13;21.10;80.20
51811;DHT22;52468;40.116;18.296;2023-08-06T01:42:41;21.10;80.30
51811;DHT22;52468;40.116;18.296;2023-08-06T01:45:09;21.10;80.30
51811;DHT22;52468;40.116;18.296;2023-08-06T01:47:37;21.10;80.10
51811;DHT22;52468;40.116;18.296;2023-08-06T01:50:06;21.10;80.20
51811;DHT22;52468;40.116;18.296;2023-08-06T01:52:34;21.20;80.10
51811;DHT22;52468;40.116;18.296;2023-08-06T01:55:02;21.10;80.10
51811;DHT22;52468;40.116;18.296;2023-08-06T01:57:30;21.10;80.00
51811;DHT22;52468;40.116;18.296;2023-08-06T01:59:58;21.10;80.00
51811;DHT22;52468;40.116;18.296;2023-08-06T02:02:26;21.10;80.20
51811;DHT22;52468;40.116;18.296;2023-08-06T02:04:54;21.10;80.00
51811;DHT22;52468;40.116;18.296;2023-08-06T02:07:22;21.10;80.00
51811;DHT22;52468;40.116;18.296;2023-08-06T02:09:50;21.10;79.80
51811;DHT22;52468;40.116;18.296;2023-08-06T02:12:17;21.10;79.80
51811;DHT22;52468;40.116;18.296;2023-08-06T02:14:45;21.00;79.70
51811;DHT22;52468;40.116;18.296;2023-08-06T02:17:13;21.00;80.00
51811;DHT22;52468;40.116;18.296;2023-08-06T02:19:41;21.00;79.90
51811;DHT22;52468;40.116;18.296;2023-08-06T02:22:10;21.00;79.60
51811;DHT22;52468;40.116;18.296;2023-08-06T02:24:38;21.00;79.70
51811;DHT22;52468;40.116;18.296;2023-08-06T02:27:06;21.00;79.60
51811;DHT22;52468;40.116;18.296;2023-08-06T02:29:34;21.00;79.60
51811;DHT22;52468;40.116;18.296;2023-08-06T02:32:02;21.00;79.50
51811;DHT22;52468;40.116;18.296;2023-08-06T02:34:30;21.00;79.50
51811;DHT22;52468;40.116;18.296;2023-08-06T02:36:58;21.00;79.30
51811;DHT22;52468;40.116;18.296;2023-08-06T02:39:25;20.90;79.10
51811;DHT22;52468;40.116;18.296;2023-08-06T02:41:53;20.90;78.90
51811;DHT22;52468;40.116;18.296;2023-08-06T02:44:21;20.90;79.10
51811;DHT22;52468;40.116;18.296;2023-08-06T02:46:49;20.90;78.90
51811;DHT22;52468;40.116;18.296;2023-08-06T02:49:17;20.90;78.90
51811;DHT22;52468;40.116;18.296;2023-08-06T02:51:45;20.80;78.70
51811;DHT22;52468;40.116;18.296;2023-08-06T02:54:13;20.80;78.90
51811;DHT22;52468;40.116;18.296;2023-08-06T02:56:45;20.80;78.80
51811;DHT22;52468;40.116;18.296;2023-08-06T02:59:24;20.80;78.60
51811;DHT22;52468;40.116;18.296;2023-08-06T03:02:30;20.70;78.70
51811;DHT22;52468;40.116;18.296;2023-08-06T03:05:10;20.70;78.70
51811;DHT22;52468;40.116;18.296;2023-08-06T03:07:43;20.70;78.80
51811;DHT22;52468;40.116;18.296;2023-08-06T03:10:17;20.60;78.80
51811;DHT22;52468;40.116;18.296;2023-08-06T03:12:45;20.60;78.60
51811;DHT22;52468;40.116;18.296;2023-08-06T03:15:13;20.60;78.40
51811;DHT22;52468;40.116;18.296;2023-08-06T03:17:43;20.60;78.30
51811;DHT22;52468;40.116;18.296;2023-08-06T03:20:13;20.50;78.50
51811;DHT22;52468;40.116;18.296;2023-08-06T03:22:41;20.50;78.40
51811;DHT22;52468;40.116;18.296;2023-08-06T03:25:10;20.50;78.30
51811;DHT22;52468;40.116;18.296;2023-08-06T03:27:38;20.40;78.20
51811;DHT22;52468;40.116;18.296;2023-08-06T03:30:07;20.30;78.20
51811;DHT22;52468;40.116;18.296;2023-08-06T03:32:36;20.30;78.30
51811;DHT22;52468;40.116;18.296;2023-08-06T03:35:06;20.30;77.90
51811;DHT22;52468;40.116;18.296;2023-08-06T03:37:34;20.20;77.70
51811;DHT22;52468;40.116;18.296;2023-08-06T03:40:01;20.20;78.10
51811;DHT22;52468;40.116;18.296;2023-08-06T03:42:32;20.20;78.10
51811;DHT22;52468;40.116;18.296;2023-08-06T03:45:00;20.20;77.80
51811;DHT22;52468;40.116;18.296;2023-08-06T03:47:29;20.20;77.50
51811;DHT22;52468;40.116;18.296;2023-08-06T03:49:57;20.20;77.50
51811;DHT22;52468;40.116;18.296;2023-08-06T03:52:25;20.20;77.20
51811;DHT22;52468;40.116;18.296;2023-08-06T03:54:53;20.20;76.90
51811;DHT22;52468;40.116;18.296;2023-08-06T03:57:22;20.20;77.10
51811;DHT22;52468;40.116;18.296;2023-08-06T03:59:50;20.10;77.20
51811;DHT22;52468;40.116;18.296;2023-08-06T04:02:21;20.10;77.20
51811;DHT22;52468;40.116;18.296;2023-08-06T04:04:49;20.10;77.10
51811;DHT22;52468;40.116;18.296;2023-08-06T04:07:17;20.00;77.20
51811;DHT22;52468;40.116;18.296;2023-08-06T04:09:57;20.00;77.10
51811;DHT22;52468;40.116;18.296;2023-08-06T04:12:26;20.10;77.20
51811;DHT22;52468;40.116;18.296;2023-08-06T04:14:55;20.10;76.90
51811;DHT22;52468;40.116;18.296;2023-08-06T04:17:23;20.30;76.70
51811;DHT22;52468;40.116;18.296;2023-08-06T04:19:53;20.40;76.60
51811;DHT22;52468;40.116;18.296;2023-08-06T04:22:22;20.50;76.40
51811;DHT22;52468;40.116;18.296;2023-08-06T04:24:50;20.80;75.70
51811;DHT22;52468;40.116;18.296;2023-08-06T04:27:19;20.90;75.10
51811;DHT22;52468;40.116;18.296;2023-08-06T04:29:49;21.00;73.70
51811;DHT22;52468;40.116;18.296;2023-08-06T04:32:17;21.10;73.00
51811;DHT22;52468;40.116;18.296;2023-08-06T04:34:50;21.20;72.30
51811;DHT22;52468;40.116;18.296;2023-08-06T04:37:18;21.40;72.10
51811;DHT22;52468;40.116;18.296;2023-08-06T04:39:46;21.60;71.50
51811;DHT22;52468;40.116;18.296;2023-08-06T04:42:15;21.60;70.80
51811;DHT22;52468;40.116;18.296;2023-08-06T04:44:43;21.70;70.00
51811;DHT22;52468;40.116;18.296;2023-08-06T04:47:11;21.80;69.30
51811;DHT22;52468;40.116;18.296;2023-08-06T04:49:39;22.00;68.80
51811;DHT22;52468;40.116;18.296;2023-08-06T04:52:07;22.00;68.20
51811;DHT22;52468;40.116;18.296;2023-08-06T04:54:34;22.10;68.10
51811;DHT22;52468;40.116;18.296;2023-08-06T04:57:02;22.30;68.10
51811;DHT22;52468;40.116;18.296;2023-08-06T04:59:30;22.40;67.20
51811;DHT22;52468;40.116;18.296;2023-08-06T05:01:58;22.50;67.20
51811;DHT22;52468;40.116;18.296;2023-08-06T05:04:26;22.60;66.80
51811;DHT22;52468;40.116;18.296;2023-08-06T05:06:54;22.80;66.10
51811;DHT22;52468;40.116;18.296;2023-08-06T05:09:22;22.80;65.50
51811;DHT22;52468;40.116;18.296;2023-08-06T05:11:50;22.90;65.10
51811;DHT22;52468;40.116;18.296;2023-08-06T05:14:18;23.00;65.50
51811;DHT22;52468;40.116;18.296;2023-08-06T05:16:46;23.00;64.90
51811;DHT22;52468;40.116;18.296;2023-08-06T05:19:13;23.30;64.10
51811;DHT22;52468;40.116;18.296;2023-08-06T05:21:41;23.30;64.20
51811;DHT22;52468;40.116;18.296;2023-08-06T05:24:09;23.50;63.80
51811;DHT22;52468;40.116;18.296;2023-08-06T05:26:37;23.50;63.50
51811;DHT22;52468;40.116;18.296;2023-08-06T05:29:05;23.60;63.00
51811;DHT22;52468;40.116;18.296;2023-08-06T05:31:33;23.70;62.60
51811;DHT22;52468;40.116;18.296;2023-08-06T05:34:01;23.80;62.30
51811;DHT22;52468;40.116;18.296;2023-08-06T05:36:29;24.00;61.50
51811;DHT22;52468;40.116;18.296;2023-08-06T05:38:56;23.90;60.20
51811;DHT22;52468;40.116;18.296;2023-08-06T05:41:24;24.00;60.70
51811;DHT22;52468;40.116;18.296;2023-08-06T05:43:52;24.10;60.10
51811;DHT22;52468;40.116;18.296;2023-08-06T05:46:20;24.30;59.50
51811;DHT22;52468;40.116;18.296;2023-08-06T05:48:48;24.30;59.80
51811;DHT22;52468;40.116;18.296;2023-08-06T05:51:17;24.50;59.80
51811;DHT22;52468;40.116;18.296;2023-08-06T05:53:45;24.60;59.30
51811;DHT22;52468;40.116;18.296;2023-08-06T05:56:14;24.80;59.30
51811;DHT22;52468;40.116;18.296;2023-08-06T05:58:42;24.80;57.90
51811;DHT22;52468;40.116;18.296;2023-08-06T06:01:10;24.80;57.70
51811;DHT22;52468;40.116;18.296;2023-08-06T06:03:38;24.90;58.10
51811;DHT22;52468;40.116;18.296;2023-08-06T06:06:06;25.00;57.50
51811;DHT22;52468;40.116;18.296;2023-08-06T06:08:34;25.10;57.60
51811;DHT22;52468;40.116;18.296;2023-08-06T06:11:02;25.20;56.40
51811;DHT22;52468;40.116;18.296;2023-08-06T06:13:29;25.30;56.40
51811;DHT22;52468;40.116;18.296;2023-08-06T06:15:57;25.40;56.40
51811;DHT22;52468;40.116;18.296;2023-08-06T06:18:25;25.50;55.50
51811;DHT22;52468;40.116;18.296;2023-08-06T06:20:53;25.50;54.40
51811;DHT22;52468;40.116;18.296;2023-08-06T06:23:21;25.50;54.30
51811;DHT22;52468;40.116;18.296;2023-08-06T06:25:49;25.50;54.40
51811;DHT22;52468;40.116;18.296;2023-08-06T06:28:20;25.60;53.90
51811;DHT22;52468;40.116;18.296;2023-08-06T06:30:48;25.80;54.10
51811;DHT22;52468;40.116;18.296;2023-08-06T06:33:16;26.00;53.80
51811;DHT22;52468;40.116;18.296;2023-08-06T06:35:44;26.10;52.50
51811;DHT22;52468;40.116;18.296;2023-08-06T06:38:12;26.20;52.60
51811;DHT22;52468;40.116;18.296;2023-08-06T06:40:40;26.40;51.90
51811;DHT22;52468;40.116;18.296;2023-08-06T06:43:07;26.50;51.80
51811;DHT22;52468;40.116;18.296;2023-08-06T06:45:35;26.50;51.30
51811;DHT22;52468;40.116;18.296;2023-08-06T06:48:03;26.60;51.00
51811;DHT22;52468;40.116;18.296;2023-08-06T06:50:31;26.60;50.80
51811;DHT22;52468;40.116;18.296;2023-08-06T06:52:59;26.60;50.40
51811;DHT22;52468;40.116;18.296;2023-08-06T06:55:27;26.70;50.40
51811;DHT22;52468;40.116;18.296;2023-08-06T06:57:55;26.80;50.10
51811;DHT22;52468;40.116;18.296;2023-08-06T07:00:23;26.90;49.60
51811;DHT22;52468;40.116;18.296;2023-08-06T07:02:51;27.00;48.90
51811;DHT22;52468;40.116;18.296;2023-08-06T07:05:20;27.00;48.70
51811;DHT22;52468;40.116;18.296;2023-08-06T07:07:48;27.20;48.80
51811;DHT22;52468;40.116;18.296;2023-08-06T07:10:16;27.30;48.40
51811;DHT22;52468;40.116;18.296;2023-08-06T07:12:44;27.40;48.20
51811;DHT22;52468;40.116;18.296;2023-08-06T07:15:12;27.50;47.90
51811;DHT22;52468;40.116;18.296;2023-08-06T07:17:40;27.50;47.70
51811;DHT22;52468;40.116;18.296;2023-08-06T07:20:08;27.70;47.80
51811;DHT22;52468;40.116;18.296;2023-08-06T07:22:36;27.80;47.30
51811;DHT22;52468;40.116;18.296;2023-08-06T07:25:04;27.80;47.30
51811;DHT22;52468;40.116;18.296;2023-08-06T07:27:32;28.00;46.50
51811;DHT22;52468;40.116;18.296;2023-08-06T07:30:00;28.00;46.60
51811;DHT22;52468;40.116;18.296;2023-08-06T07:32:29;28.30;45.80
51811;DHT22;52468;40.116;18.296;2023-08-06T07:34:57;28.40;45.30
51811;DHT22;52468;40.116;18.296;2023-08-06T07:37:28;28.50;44.70
51811;DHT22;52468;40.116;18.296;2023-08-06T07:39:56;28.40;44.50
51811;DHT22;52468;40.116;18.296;2023-08-06T07:42:24;28.30;44.70
51811;DHT22;52468;40.116;18.296;2023-08-06T07:44:55;28.20;44.80
51811;DHT22;52468;40.116;18.296;2023-08-06T07:47:24;28.40;44.80
51811;DHT22;52468;40.116;18.296;2023-08-06T07:49:52;28.40;43.70
51811;DHT22;52468;40.116;18.296;2023-08-06T07:52:20;28.50;43.30
51811;DHT22;52468;40.116;18.296;2023-08-06T07:54:47;28.60;43.10
51811;DHT22;52468;40.116;18.296;2023-08-06T07:57:17;28.70;43.50
51811;DHT22;52468;40.116;18.296;2023-08-06T07:59:45;28.90;43.30
51811;DHT22;52468;40.116;18.296;2023-08-06T08:02:12;28.90;42.90
51811;DHT22;52468;40.116;18.296;2023-08-06T08:04:40;29.00;42.70
51811;DHT22;52468;40.116;18.296;2023-08-06T08:07:10;29.10;42.60
51811;DHT22;52468;40.116;18.296;2023-08-06T08:09:38;29.20;42.00
51811;DHT22;52468;40.116;18.296;2023-08-06T08:12:06;29.20;41.50
51811;DHT22;52468;40.116;18.296;2023-08-06T08:14:34;29.20;41.70
51811;DHT22;52468;40.116;18.296;2023-08-06T08:17:06;29.20;42.20
51811;DHT22;52468;40.116;18.296;2023-08-06T08:19:34;29.40;41.80
51811;DHT22;52468;40.116;18.296;2023-08-06T08:22:01;29.50;40.40
51811;DHT22;52468;40.116;18.296;2023-08-06T08:24:29;29.60;40.10
51811;DHT22;52468;40.116;18.296;2023-08-06T08:26:58;29.70;39.80
51811;DHT22;52468;40.116;18.296;2023-08-06T08:29:26;29.80;39.80
51811;DHT22;52468;40.116;18.296;2023-08-06T08:31:54;30.00;39.70
51811;DHT22;52468;40.116;18.296;2023-08-06T08:34:21;30.00;39.50
51811;DHT22;52468;40.116;18.296;2023-08-06T08:36:49;30.00;39.50
51811;DHT22;52468;40.116;18.296;2023-08-06T08:39:17;30.00;39.50
51811;DHT22;52468;40.116;18.296;2023-08-06T08:41:45;29.80;39.20
51811;DHT22;52468;40.116;18.296;2023-08-06T08:44:13;29.80;39.80
51811;DHT22;52468;40.116;18.296;2023-08-06T08:46:45;29.90;39.90
51811;DHT22;52468;40.116;18.296;2023-08-06T08:49:15;29.80;39.90
51811;DHT22;52468;40.116;18.296;2023-08-06T08:51:44;30.10;39.50
51811;DHT22;52468;40.116;18.296;2023-08-06T08:54:13;30.30;38.70
51811;DHT22;52468;40.116;18.296;2023-08-06T08:56:41;30.40;38.60
51811;DHT22;52468;40.116;18.296;2023-08-06T08:59:10;30.40;38.10
51811;DHT22;52468;40.116;18.296;2023-08-06T09:01:39;30.20;37.70
51811;DHT22;52468;40.116;18.296;2023-08-06T09:04:09;30.10;38.00
51811;DHT22;52468;40.116;18.296;2023-08-06T09:06:38;30.40;37.50
51811;DHT22;52468;40.116;18.296;2023-08-06T09:09:11;30.60;37.40
51811;DHT22;52468;40.116;18.296;2023-08-06T09:12:01;30.60;36.50
51811;DHT22;52468;40.116;18.296;2023-08-06T09:14:30;30.50;37.00
51811;DHT22;52468;40.116;18.296;2023-08-06T09:16:58;30.90;36.90
51811;DHT22;52468;40.116;18.296;2023-08-06T09:19:27;31.00;35.80
51811;DHT22;52468;40.116;18.296;2023-08-06T09:21:56;30.90;35.10
51811;DHT22;52468;40.116;18.296;2023-08-06T09:24:24;30.80;34.90
51811;DHT22;52468;40.116;18.296;2023-08-06T09:26:53;30.80;35.00
51811;DHT22;52468;40.116;18.296;2023-08-06T09:29:21;30.70;35.60
51811;DHT22;52468;40.116;18.296;2023-08-06T09:31:50;30.70;35.80
51811;DHT22;52468;40.116;18.296;2023-08-06T09:34:22;30.80;35.60
51811;DHT22;52468;40.116;18.296;2023-08-06T09:36:54;30.90;36.00
51811;DHT22;52468;40.116;18.296;2023-08-06T09:39:27;30.90;35.70
51811;DHT22;52468;40.116;18.296;2023-08-06T09:41:57;31.00;34.70
51811;DHT22;52468;40.116;18.296;2023-08-06T09:44:27;31.10;33.40
51811;DHT22;52468;40.116;18.296;2023-08-06T09:46:56;31.10;33.10
51811;DHT22;52468;40.116;18.296;2023-08-06T09:49:42;31.30;32.90
51811;DHT22;52468;40.116;18.296;2023-08-06T09:52:12;31.30;32.60
51811;DHT22;52468;40.116;18.296;2023-08-06T09:54:43;31.40;33.00
51811;DHT22;52468;40.116;18.296;2023-08-06T09:57:12;31.30;33.20
51811;DHT22;52468;40.116;18.296;2023-08-06T09:59:42;31.50;33.70
51811;DHT22;52468;40.116;18.296;2023-08-06T10:02:13;31.40;33.30
51811;DHT22;52468;40.116;18.296;2023-08-06T10:04:44;31.30;33.40
51811;DHT22;52468;40.116;18.296;2023-08-06T10:07:21;31.30;33.20
51811;DHT22;52468;40.116;18.296;2023-08-06T10:09:51;31.40;33.20
51811;DHT22;52468;40.116;18.296;2023-08-06T10:12:21;31.60;32.60
51811;DHT22;52468;40.116;18.296;2023-08-06T10:14:52;31.60;30.40
51811;DHT22;52468;40.116;18.296;2023-08-06T10:17:22;31.50;31.50
51811;DHT22;52468;40.116;18.296;2023-08-06T10:19:52;31.50;32.30
51811;DHT22;52468;40.116;18.296;2023-08-06T10:22:23;31.60;32.30
51811;DHT22;52468;40.116;18.296;2023-08-06T10:24:56;31.80;30.50
51811;DHT22;52468;40.116;18.296;2023-08-06T10:30:21;31.60;30.60
51811;DHT22;52468;40.116;18.296;2023-08-06T10:32:52;31.30;31.30
51811;DHT22;52468;40.116;18.296;2023-08-06T10:35:40;31.50;31.50
51811;DHT22;52468;40.116;18.296;2023-08-06T10:38:12;31.90;31.30
51811;DHT22;52468;40.116;18.296;2023-08-06T10:43:35;32.10;30.60
51811;DHT22;52468;40.116;18.296;2023-08-06T10:46:22;32.10;30.50
51811;DHT22;52468;40.116;18.296;2023-08-06T10:48:54;32.00;30.90
51811;DHT22;52468;40.116;18.296;2023-08-06T10:51:24;32.20;31.50
51811;DHT22;52468;40.116;18.296;2023-08-06T10:53:52;32.30;30.90
51811;DHT22;52468;40.116;18.296;2023-08-06T10:56:22;32.40;31.00
51811;DHT22;52468;40.116;18.296;2023-08-06T10:58:53;32.50;31.00
51811;DHT22;52468;40.116;18.296;2023-08-06T11:01:22;32.70;30.30
51811;DHT22;52468;40.116;18.296;2023-08-06T11:03:51;32.70;30.00
51811;DHT22;52468;40.116;18.296;2023-08-06T11:06:22;32.90;30.20
51811;DHT22;52468;40.116;18.296;2023-08-06T11:08:52;33.10;30.10
51811;DHT22;52468;40.116;18.296;2023-08-06T11:11:23;33.10;29.50
51811;DHT22;52468;40.116;18.296;2023-08-06T11:13:52;32.80;29.20
51811;DHT22;52468;40.116;18.296;2023-08-06T11:16:24;32.70;29.90
51811;DHT22;52468;40.116;18.296;2023-08-06T11:18:52;32.50;30.40
51811;DHT22;52468;40.116;18.296;2023-08-06T11:21:22;32.40;30.50
51811;DHT22;52468;40.116;18.296;2023-08-06T11:23:51;32.40;31.10
51811;DHT22;52468;40.116;18.296;2023-08-06T11:26:20;32.60;30.70
51811;DHT22;52468;40.116;18.296;2023-08-06T11:28:48;32.70;30.60
51811;DHT22;52468;40.116;18.296;2023-08-06T11:31:23;32.60;30.30
51811;DHT22;52468;40.116;18.296;2023-08-06T11:33:55;32.70;30.20
51811;DHT22;52468;40.116;18.296;2023-08-06T11:36:40;32.90;30.00
51811;DHT22;52468;40.116;18.296;2023-08-06T11:39:09;33.00;30.00
51811;DHT22;52468;40.116;18.296;2023-08-06T11:41:38;33.00;29.90
51811;DHT22;52468;40.116;18.296;2023-08-06T11:44:10;32.80;30.00
51811;DHT22;52468;40.116;18.296;2023-08-06T11:46:53;32.70;30.00
51811;DHT22;52468;40.116;18.296;2023-08-06T11:49:39;32.80;30.10
51811;DHT22;52468;40.116;18.296;2023-08-06T11:54:43;33.20;29.60
51811;DHT22;52468;40.116;18.296;2023-08-06T11:57:11;33.20;29.60
51811;DHT22;52468;40.116;18.296;2023-08-06T11:59:39;33.20;29.50
51811;DHT22;52468;40.116;18.296;2023-08-06T12:02:10;33.20;29.70
51811;DHT22;52468;40.116;18.296;2023-08-06T12:05:01;33.50;29.60
51811;DHT22;52468;40.116;18.296;2023-08-06T12:07:30;33.50;29.20
51811;DHT22;52468;40.116;18.296;2023-08-06T12:09:59;33.40;29.30
51811;DHT22;52468;40.116;18.296;2023-08-06T12:12:27;33.50;29.40
51811;DHT22;52468;40.116;18.296;2023-08-06T12:14:55;34.00;29.00
51811;DHT22;52468;40.116;18.296;2023-08-06T12:17:27;33.80;28.80
51811;DHT22;52468;40.116;18.296;2023-08-06T12:19:55;34.00;28.80
51811;DHT22;52468;40.116;18.296;2023-08-06T12:22:28;34.30;28.70
51811;DHT22;52468;40.116;18.296;2023-08-06T12:24:59;34.20;28.30
51811;DHT22;52468;40.116;18.296;2023-08-06T12:27:26;34.40;28.60
51811;DHT22;52468;40.116;18.296;2023-08-06T12:29:54;34.50;28.60
51811;DHT22;52468;40.116;18.296;2023-08-06T12:32:22;34.50;28.50
51811;DHT22;52468;40.116;18.296;2023-08-06T12:34:50;34.30;28.80
51811;DHT22;52468;40.116;18.296;2023-08-06T12:37:19;34.10;29.00
51811;DHT22;52468;40.116;18.296;2023-08-06T12:39:47;33.90;29.70
51811;DHT22;52468;40.116;18.296;2023-08-06T12:42:15;34.00;29.90
51811;DHT22;52468;40.116;18.296;2023-08-06T12:44:43;34.00;29.90
51811;DHT22;52468;40.116;18.296;2023-08-06T12:47:11;34.30;29.50
51811;DHT22;52468;40.116;18.296;2023-08-06T12:49:39;34.30;29.50
51811;DHT22;52468;40.116;18.296;2023-08-06T12:52:06;34.50;29.50
51811;DHT22;52468;40.116;18.296;2023-08-06T12:54:36;34.80;29.80
51811;DHT22;52468;40.116;18.296;2023-08-06T12:57:05;35.20;29.00
51811;DHT22;52468;40.116;18.296;2023-08-06T12:59:33;35.50;28.50
51811;DHT22;52468;40.116;18.296;2023-08-06T13:02:04;35.70;28.20
51811;DHT22;52468;40.116;18.296;2023-08-06T13:04:32;35.70;28.10
51811;DHT22;52468;40.116;18.296;2023-08-06T13:07:01;35.60;28.80
51811;DHT22;52468;40.116;18.296;2023-08-06T13:09:29;36.00;28.90
51811;DHT22;52468;40.116;18.296;2023-08-06T13:11:59;36.30;28.70
51811;DHT22;52468;40.116;18.296;2023-08-06T13:14:27;37.10;27.30
51811;DHT22;52468;40.116;18.296;2023-08-06T13:16:56;37.30;26.50
51811;DHT22;52468;40.116;18.296;2023-08-06T13:19:24;37.40;26.80
51811;DHT22;52468;40.116;18.296;2023-08-06T13:21:59;38.30;26.20
51811;DHT22;52468;40.116;18.296;2023-08-06T13:24:27;39.10;25.30
51811;DHT22;52468;40.116;18.296;2023-08-06T13:26:55;40.20;24.20
51811;DHT22;52468;40.116;18.296;2023-08-06T13:29:23;41.10;23.20
51811;DHT22;52468;40.116;18.296;2023-08-06T13:31:51;41.80;22.50
51811;DHT22;52468;40.116;18.296;2023-08-06T13:34:19;42.70;21.90
51811;DHT22;52468;40.116;18.296;2023-08-06T13:36:47;43.50;21.20
51811;DHT22;52468;40.116;18.296;2023-08-06T13:39:15;43.50;21.00
51811;DHT22;52468;40.116;18.296;2023-08-06T13:41:44;43.70;20.70
51811;DHT22;52468;40.116;18.296;2023-08-06T13:44:12;44.00;20.20
51811;DHT22;52468;40.116;18.296;2023-08-06T13:46:42;44.30;20.20
51811;DHT22;52468;40.116;18.296;2023-08-06T13:49:10;44.10;20.40
51811;DHT22;52468;40.116;18.296;2023-08-06T13:51:38;43.70;20.70
51811;DHT22;52468;40.116;18.296;2023-08-06T13:54:06;44.10;20.70
51811;DHT22;52468;40.116;18.296;2023-08-06T13:56:34;45.00;20.20
51811;DHT22;52468;40.116;18.296;2023-08-06T13:59:02;45.50;19.90
51811;DHT22;52468;40.116;18.296;2023-08-06T14:01:30;45.50;19.70
51811;DHT22;52468;40.116;18.296;2023-08-06T14:04:05;45.40;19.50
51811;DHT22;52468;40.116;18.296;2023-08-06T14:06:33;45.70;19.40
51811;DHT22;52468;40.116;18.296;2023-08-06T14:09:01;45.80;19.30
51811;DHT22;52468;40.116;18.296;2023-08-06T14:11:29;45.90;19.40
51811;DHT22;52468;40.116;18.296;2023-08-06T14:13:56;46.40;19.20
51811;DHT22;52468;40.116;18.296;2023-08-06T14:16:24;46.50;19.10
51811;DHT22;52468;40.116;18.296;2023-08-06T14:18:52;46.60;19.50
51811;DHT22;52468;40.116;18.296;2023-08-06T14:21:20;46.10;19.70
51811;DHT22;52468;40.116;18.296;2023-08-06T14:23:48;45.70;20.20
51811;DHT22;52468;40.116;18.296;2023-08-06T14:26:16;45.60;20.40
51811;DHT22;52468;40.116;18.296;2023-08-06T14:28:44;45.50;20.60
51811;DHT22;52468;40.116;18.296;2023-08-06T14:31:12;45.00;21.00
51811;DHT22;52468;40.116;18.296;2023-08-06T14:33:40;44.60;21.30
51811;DHT22;52468;40.116;18.296;2023-08-06T14:36:08;44.50;21.60
51811;DHT22;52468;40.116;18.296;2023-08-06T14:38:36;44.60;21.20
51811;DHT22;52468;40.116;18.296;2023-08-06T14:41:07;44.00;21.50
51811;DHT22;52468;40.116;18.296;2023-08-06T14:43:35;44.00;21.60
51811;DHT22;52468;40.116;18.296;2023-08-06T14:46:03;44.20;21.20
51811;DHT22;52468;40.116;18.296;2023-08-06T14:48:31;44.60;21.20
51811;DHT22;52468;40.116;18.296;2023-08-06T14:50:59;44.90;21.20
51811;DHT22;52468;40.116;18.296;2023-08-06T14:53:26;45.30;21.10
51811;DHT22;52468;40.116;18.296;2023-08-06T14:55:54;45.70;20.40
51811;DHT22;52468;40.116;18.296;2023-08-06T14:58:22;45.80;20.40
51811;DHT22;52468;40.116;18.296;2023-08-06T15:00:50;46.00;20.20
51811;DHT22;52468;40.116;18.296;2023-08-06T15:03:18;45.80;20.80
51811;DHT22;52468;40.116;18.296;2023-08-06T15:05:49;45.90;21.00
51811;DHT22;52468;40.116;18.296;2023-08-06T15:08:17;45.60;21.40
51811;DHT22;52468;40.116;18.296;2023-08-06T15:10:52;45.70;21.50
51811;DHT22;52468;40.116;18.296;2023-08-06T15:13:20;45.80;21.10
51811;DHT22;52468;40.116;18.296;2023-08-06T15:15:49;46.00;21.00
51811;DHT22;52468;40.116;18.296;2023-08-06T15:18:17;45.90;21.30
51811;DHT22;52468;40.116;18.296;2023-08-06T15:20:46;46.00;21.60
51811;DHT22;52468;40.116;18.296;2023-08-06T15:23:14;45.80;22.00
51811;DHT22;52468;40.116;18.296;2023-08-06T15:25:42;45.00;23.10
51811;DHT22;52468;40.116;18.296;2023-08-06T15:28:10;44.90;23.50
51811;DHT22;52468;40.116;18.296;2023-08-06T15:30:38;44.90;23.80
51811;DHT22;52468;40.116;18.296;2023-08-06T15:33:07;44.70;23.90
51811;DHT22;52468;40.116;18.296;2023-08-06T15:35:35;44.30;24.30
51811;DHT22;52468;40.116;18.296;2023-08-06T15:38:03;44.80;23.70
51811;DHT22;52468;40.116;18.296;2023-08-06T15:40:31;44.40;23.90
51811;DHT22;52468;40.116;18.296;2023-08-06T15:42:58;44.20;24.20